Multibeam Report for NBP0507


Ship Name: Nathaniel B. Palmer
Chief Scientist: Croon, Marcel
UCSD
Source Organization: Marine Geoscience Data System (MGDS)
Start Date: 2005-09-26
End Date: 2005-10-20


View ISO Metadata

Visit the full NCEI Bathymetry Viewer


Multibeam Bathymetry

Cruise Details

Project:
Instrument: Simrad EM120

Data Quality

Number of Files: 569
Number of Records: 261413
BATHYMETRY DATA Quantity Percentage
Number of Beams 49929883 100%
Number of Good Beams 40026711 80.17%
Number of Zero Beams 9903172 19.83%
Number of Flagged Beams 0 0%

Navigation Totals

Total Time: 556.0927 hours
Total Track Length: 10694.6777 km
Average Speed: 19.232 km/hr (10.3845 knots)

Cruise Bounds

Northern Extent: -43.553482
Southern Extent: -52.87481
Western Extent: 172.879
Eastern Extent: -80.24876

Limits

Minimum Sonar Depth 0 Maximum Sonar Depth 31457.2793
Minimum Altitude 0 Maximum Altitude 7070.8799
Minimum Depth 14.23 Maximum Depth 7382.96

File Information

Full Resolution Bathymetry as collected (raw): 568

Files File Size Description
0001_20050926_002200_raw.all.mb56.gz 7.03MB Simrad multibeam vendor format
0001_20051004_200001_raw.all.mb56.gz 168.9KB Simrad multibeam vendor format
0002_20050926_012200_raw.all.mb56.gz 7.19MB Simrad multibeam vendor format
0003_20050926_022200_raw.all.mb56.gz 7.44MB Simrad multibeam vendor format
0004_20050926_032201_raw.all.mb56.gz 7.11MB Simrad multibeam vendor format
0005_20050926_042201_raw.all.mb56.gz 7.26MB Simrad multibeam vendor format
0006_20050926_052201_raw.all.mb56.gz 7.20MB Simrad multibeam vendor format
0007_20050926_062201_raw.all.mb56.gz 7.42MB Simrad multibeam vendor format
0008_20050926_072201_raw.all.mb56.gz 7.78MB Simrad multibeam vendor format
0009_20050926_082201_raw.all.mb56.gz 7.47MB Simrad multibeam vendor format
0010_20050926_092201_raw.all.mb56.gz 6.95MB Simrad multibeam vendor format
0011_20050926_102201_raw.all.mb56.gz 6.66MB Simrad multibeam vendor format
0012_20050926_112201_raw.all.mb56.gz 6.84MB Simrad multibeam vendor format
0013_20050926_122201_raw.all.mb56.gz 6.88MB Simrad multibeam vendor format
0014_20050926_132201_raw.all.mb56.gz 7.24MB Simrad multibeam vendor format
0015_20050926_142201_raw.all.mb56.gz 6.91MB Simrad multibeam vendor format
0016_20050926_152201_raw.all.mb56.gz 7.04MB Simrad multibeam vendor format
0017_20050926_162202_raw.all.mb56.gz 6.80MB Simrad multibeam vendor format
0018_20050926_172202_raw.all.mb56.gz 6.98MB Simrad multibeam vendor format
0019_20050926_182202_raw.all.mb56.gz 7.18MB Simrad multibeam vendor format
0020_20050926_192202_raw.all.mb56.gz 0.76MB Simrad multibeam vendor format
0021_20050926_192850_raw.all.mb56.gz 6.61MB Simrad multibeam vendor format
0022_20050926_202850_raw.all.mb56.gz 6.88MB Simrad multibeam vendor format
0023_20050926_212850_raw.all.mb56.gz 6.98MB Simrad multibeam vendor format
0024_20050926_222850_raw.all.mb56.gz 6.95MB Simrad multibeam vendor format
0025_20050926_232851_raw.all.mb56.gz 7.07MB Simrad multibeam vendor format
0026_20050927_002851_raw.all.mb56.gz 6.81MB Simrad multibeam vendor format
0027_20050927_012851_raw.all.mb56.gz 6.81MB Simrad multibeam vendor format
0028_20050927_022851_raw.all.mb56.gz 6.75MB Simrad multibeam vendor format
0029_20050927_032851_raw.all.mb56.gz 6.50MB Simrad multibeam vendor format
0030_20050927_042851_raw.all.mb56.gz 6.57MB Simrad multibeam vendor format
0031_20050927_052851_raw.all.mb56.gz 6.50MB Simrad multibeam vendor format
0032_20050927_062851_raw.all.mb56.gz 6.59MB Simrad multibeam vendor format
0033_20050927_072851_raw.all.mb56.gz 6.66MB Simrad multibeam vendor format
0034_20050927_082851_raw.all.mb56.gz 6.65MB Simrad multibeam vendor format
0035_20050927_092851_raw.all.mb56.gz 6.69MB Simrad multibeam vendor format
0036_20050927_102851_raw.all.mb56.gz 6.64MB Simrad multibeam vendor format
0037_20050927_112851_raw.all.mb56.gz 6.65MB Simrad multibeam vendor format
0038_20050927_122852_raw.all.mb56.gz 6.85MB Simrad multibeam vendor format
0039_20050927_132852_raw.all.mb56.gz 6.95MB Simrad multibeam vendor format
0040_20050927_142852_raw.all.mb56.gz 7.11MB Simrad multibeam vendor format
0041_20050927_152852_raw.all.mb56.gz 7.15MB Simrad multibeam vendor format
0042_20050927_162852_raw.all.mb56.gz 6.67MB Simrad multibeam vendor format
0043_20050927_172852_raw.all.mb56.gz 6.28MB Simrad multibeam vendor format
0044_20050927_182852_raw.all.mb56.gz 6.41MB Simrad multibeam vendor format
0045_20050927_192852_raw.all.mb56.gz 6.58MB Simrad multibeam vendor format
0046_20050927_202852_raw.all.mb56.gz 6.67MB Simrad multibeam vendor format
0047_20050927_212852_raw.all.mb56.gz 6.26MB Simrad multibeam vendor format
0048_20050927_222852_raw.all.mb56.gz 5.92MB Simrad multibeam vendor format
0049_20050927_232853_raw.all.mb56.gz 6.08MB Simrad multibeam vendor format
0050_20050928_002853_raw.all.mb56.gz 0.67MB Simrad multibeam vendor format
0051_20050928_031131_raw.all.mb56.gz 13.99MB Simrad multibeam vendor format
0052_20050928_051132_raw.all.mb56.gz 7.42MB Simrad multibeam vendor format
0053_20050928_061132_raw.all.mb56.gz 7.53MB Simrad multibeam vendor format
0054_20050928_071132_raw.all.mb56.gz 7.73MB Simrad multibeam vendor format
0055_20050928_081132_raw.all.mb56.gz 7.90MB Simrad multibeam vendor format
0056_20050928_091132_raw.all.mb56.gz 7.94MB Simrad multibeam vendor format
0057_20050928_101132_raw.all.mb56.gz 7.82MB Simrad multibeam vendor format
0058_20050928_111132_raw.all.mb56.gz 7.78MB Simrad multibeam vendor format
0059_20050928_121132_raw.all.mb56.gz 7.88MB Simrad multibeam vendor format
0060_20050928_131132_raw.all.mb56.gz 7.92MB Simrad multibeam vendor format
0061_20050928_141132_raw.all.mb56.gz 7.74MB Simrad multibeam vendor format
0062_20050928_151132_raw.all.mb56.gz 7.69MB Simrad multibeam vendor format
0063_20050928_161133_raw.all.mb56.gz 7.68MB Simrad multibeam vendor format
0064_20050928_171133_raw.all.mb56.gz 2.93MB Simrad multibeam vendor format
0065_20050928_173314_raw.all.mb56.gz 7.95MB Simrad multibeam vendor format
0066_20050928_183314_raw.all.mb56.gz 7.26MB Simrad multibeam vendor format
0067_20050928_193314_raw.all.mb56.gz 7.01MB Simrad multibeam vendor format
0068_20050928_203315_raw.all.mb56.gz 6.72MB Simrad multibeam vendor format
0069_20050928_213315_raw.all.mb56.gz 7.15MB Simrad multibeam vendor format
0070_20050928_223315_raw.all.mb56.gz 7.23MB Simrad multibeam vendor format
0071_20050928_233315_raw.all.mb56.gz 7.47MB Simrad multibeam vendor format
0072_20050929_003315_raw.all.mb56.gz 7.84MB Simrad multibeam vendor format
0073_20050929_013315_raw.all.mb56.gz 7.14MB Simrad multibeam vendor format
0074_20050929_023315_raw.all.mb56.gz 7.22MB Simrad multibeam vendor format
0075_20050929_033315_raw.all.mb56.gz 7.42MB Simrad multibeam vendor format
0076_20050929_043315_raw.all.mb56.gz 7.89MB Simrad multibeam vendor format
0077_20050929_053315_raw.all.mb56.gz 7.96MB Simrad multibeam vendor format
0078_20050929_063315_raw.all.mb56.gz 7.97MB Simrad multibeam vendor format
0079_20050929_073315_raw.all.mb56.gz 7.91MB Simrad multibeam vendor format
0080_20050929_083316_raw.all.mb56.gz 7.60MB Simrad multibeam vendor format
0081_20050929_093316_raw.all.mb56.gz 8.03MB Simrad multibeam vendor format
0082_20050929_103316_raw.all.mb56.gz 7.51MB Simrad multibeam vendor format
0083_20050929_113316_raw.all.mb56.gz 7.55MB Simrad multibeam vendor format
0084_20050929_123316_raw.all.mb56.gz 7.45MB Simrad multibeam vendor format
0085_20050929_133316_raw.all.mb56.gz 7.32MB Simrad multibeam vendor format
0086_20050929_143316_raw.all.mb56.gz 7.39MB Simrad multibeam vendor format
0087_20050929_153316_raw.all.mb56.gz 7.29MB Simrad multibeam vendor format
0088_20050929_163316_raw.all.mb56.gz 7.29MB Simrad multibeam vendor format
0089_20050929_173316_raw.all.mb56.gz 7.39MB Simrad multibeam vendor format
0090_20050929_183316_raw.all.mb56.gz 7.09MB Simrad multibeam vendor format
0091_20050929_193316_raw.all.mb56.gz 6.66MB Simrad multibeam vendor format
0092_20050929_203317_raw.all.mb56.gz 6.74MB Simrad multibeam vendor format
0093_20050929_213317_raw.all.mb56.gz 6.89MB Simrad multibeam vendor format
0094_20050929_223317_raw.all.mb56.gz 6.24MB Simrad multibeam vendor format
0095_20050929_232739_raw.all.mb56.gz 7.29MB Simrad multibeam vendor format
0096_20050930_002739_raw.all.mb56.gz 7.22MB Simrad multibeam vendor format
0097_20050930_012739_raw.all.mb56.gz 7.20MB Simrad multibeam vendor format
0098_20050930_022739_raw.all.mb56.gz 7.24MB Simrad multibeam vendor format
0099_20050930_032739_raw.all.mb56.gz 7.23MB Simrad multibeam vendor format
0100_20050930_042739_raw.all.mb56.gz 7.61MB Simrad multibeam vendor format
0101_20050930_052739_raw.all.mb56.gz 7.57MB Simrad multibeam vendor format
0102_20050930_062740_raw.all.mb56.gz 7.64MB Simrad multibeam vendor format
0103_20050930_072740_raw.all.mb56.gz 7.74MB Simrad multibeam vendor format
0104_20050930_082740_raw.all.mb56.gz 7.71MB Simrad multibeam vendor format
0105_20050930_092740_raw.all.mb56.gz 7.61MB Simrad multibeam vendor format
0106_20050930_102740_raw.all.mb56.gz 7.52MB Simrad multibeam vendor format
0107_20050930_112740_raw.all.mb56.gz 7.53MB Simrad multibeam vendor format
0108_20050930_122740_raw.all.mb56.gz 7.41MB Simrad multibeam vendor format
0109_20050930_132740_raw.all.mb56.gz 7.62MB Simrad multibeam vendor format
0110_20050930_142740_raw.all.mb56.gz 7.60MB Simrad multibeam vendor format
0111_20050930_152740_raw.all.mb56.gz 6.92MB Simrad multibeam vendor format
0112_20050930_162741_raw.all.mb56.gz 6.89MB Simrad multibeam vendor format
0113_20050930_172741_raw.all.mb56.gz 6.99MB Simrad multibeam vendor format
0114_20050930_182741_raw.all.mb56.gz 6.75MB Simrad multibeam vendor format
0115_20050930_192741_raw.all.mb56.gz 6.64MB Simrad multibeam vendor format
0116_20050930_202741_raw.all.mb56.gz 6.76MB Simrad multibeam vendor format
0117_20050930_212741_raw.all.mb56.gz 6.38MB Simrad multibeam vendor format
0118_20050930_222741_raw.all.mb56.gz 6.37MB Simrad multibeam vendor format
0119_20050930_232741_raw.all.mb56.gz 6.47MB Simrad multibeam vendor format
0120_20051001_002741_raw.all.mb56.gz 6.37MB Simrad multibeam vendor format
0121_20051001_012741_raw.all.mb56.gz 6.48MB Simrad multibeam vendor format
0122_20051001_022742_raw.all.mb56.gz 3.66MB Simrad multibeam vendor format
0123_20051002_100818_raw.all.mb56.gz 7.48MB Simrad multibeam vendor format
0124_20051002_110818_raw.all.mb56.gz 7.35MB Simrad multibeam vendor format
0125_20051002_120819_raw.all.mb56.gz 7.40MB Simrad multibeam vendor format
0126_20051002_130819_raw.all.mb56.gz 7.50MB Simrad multibeam vendor format
0127_20051002_140819_raw.all.mb56.gz 7.29MB Simrad multibeam vendor format
0128_20051002_150819_raw.all.mb56.gz 7.63MB Simrad multibeam vendor format
0129_20051002_160819_raw.all.mb56.gz 7.35MB Simrad multibeam vendor format
0130_20051002_170819_raw.all.mb56.gz 7.33MB Simrad multibeam vendor format
0131_20051002_180819_raw.all.mb56.gz 7.41MB Simrad multibeam vendor format
0132_20051002_190819_raw.all.mb56.gz 7.35MB Simrad multibeam vendor format
0133_20051002_200819_raw.all.mb56.gz 7.42MB Simrad multibeam vendor format
0134_20051002_210819_raw.all.mb56.gz 7.14MB Simrad multibeam vendor format
0135_20051002_220819_raw.all.mb56.gz 7.38MB Simrad multibeam vendor format
0136_20051002_230819_raw.all.mb56.gz 7.37MB Simrad multibeam vendor format
0137_20051003_000820_raw.all.mb56.gz 7.25MB Simrad multibeam vendor format
0138_20051003_010820_raw.all.mb56.gz 7.16MB Simrad multibeam vendor format
0139_20051003_020820_raw.all.mb56.gz 7.18MB Simrad multibeam vendor format
0140_20051003_030820_raw.all.mb56.gz 6.96MB Simrad multibeam vendor format
0141_20051003_040820_raw.all.mb56.gz 7.17MB Simrad multibeam vendor format
0142_20051003_050820_raw.all.mb56.gz 7.25MB Simrad multibeam vendor format
0143_20051003_060820_raw.all.mb56.gz 6.89MB Simrad multibeam vendor format
0144_20051003_070820_raw.all.mb56.gz 6.79MB Simrad multibeam vendor format
0145_20051003_080820_raw.all.mb56.gz 6.62MB Simrad multibeam vendor format
0146_20051003_090820_raw.all.mb56.gz 7.14MB Simrad multibeam vendor format
0147_20051003_100820_raw.all.mb56.gz 7.18MB Simrad multibeam vendor format
0148_20051003_110820_raw.all.mb56.gz 7.65MB Simrad multibeam vendor format
0149_20051003_120820_raw.all.mb56.gz 7.44MB Simrad multibeam vendor format
0150_20051003_130821_raw.all.mb56.gz 8.02MB Simrad multibeam vendor format
0151_20051003_140821_raw.all.mb56.gz 8.21MB Simrad multibeam vendor format
0152_20051003_150821_raw.all.mb56.gz 8.18MB Simrad multibeam vendor format
0153_20051003_160821_raw.all.mb56.gz 8.12MB Simrad multibeam vendor format
0154_20051003_170821_raw.all.mb56.gz 8.13MB Simrad multibeam vendor format
0155_20051003_180821_raw.all.mb56.gz 8.13MB Simrad multibeam vendor format
0156_20051003_190821_raw.all.mb56.gz 7.83MB Simrad multibeam vendor format
0157_20051003_200821_raw.all.mb56.gz 7.15MB Simrad multibeam vendor format
0158_20051003_210821_raw.all.mb56.gz 6.52MB Simrad multibeam vendor format
0159_20051003_220821_raw.all.mb56.gz 7.20MB Simrad multibeam vendor format
0160_20051003_230821_raw.all.mb56.gz 7.26MB Simrad multibeam vendor format
0161_20051004_000821_raw.all.mb56.gz 7.02MB Simrad multibeam vendor format
0162_20051004_010821_raw.all.mb56.gz 6.77MB Simrad multibeam vendor format
0163_20051004_020822_raw.all.mb56.gz 7.08MB Simrad multibeam vendor format
0164_20051004_030822_raw.all.mb56.gz 7.36MB Simrad multibeam vendor format
0165_20051004_040822_raw.all.mb56.gz 7.19MB Simrad multibeam vendor format
0166_20051004_050822_raw.all.mb56.gz 6.96MB Simrad multibeam vendor format
0167_20051004_060822_raw.all.mb56.gz 7.09MB Simrad multibeam vendor format
0168_20051004_070822_raw.all.mb56.gz 6.90MB Simrad multibeam vendor format
0169_20051004_080822_raw.all.mb56.gz 6.70MB Simrad multibeam vendor format
0170_20051004_090822_raw.all.mb56.gz 7.00MB Simrad multibeam vendor format
0171_20051004_100822_raw.all.mb56.gz 6.93MB Simrad multibeam vendor format
0172_20051004_110822_raw.all.mb56.gz 6.84MB Simrad multibeam vendor format
0173_20051004_120822_raw.all.mb56.gz 6.80MB Simrad multibeam vendor format
0174_20051004_130822_raw.all.mb56.gz 6.72MB Simrad multibeam vendor format
0175_20051004_140823_raw.all.mb56.gz 5.98MB Simrad multibeam vendor format
0176_20051004_150823_raw.all.mb56.gz 5.92MB Simrad multibeam vendor format
0177_20051004_160823_raw.all.mb56.gz 5.90MB Simrad multibeam vendor format
0178_20051004_170823_raw.all.mb56.gz 5.72MB Simrad multibeam vendor format
0179_20051004_180823_raw.all.mb56.gz 5.73MB Simrad multibeam vendor format
0180_20051004_190823_raw.all.mb56.gz 1.47MB Simrad multibeam vendor format
0182_20051004_200723_raw.all.mb56.gz 7.41MB Simrad multibeam vendor format
0183_20051004_210724_raw.all.mb56.gz 6.75MB Simrad multibeam vendor format
0184_20051004_220724_raw.all.mb56.gz 7.01MB Simrad multibeam vendor format
0185_20051004_230724_raw.all.mb56.gz 7.56MB Simrad multibeam vendor format
0186_20051005_000724_raw.all.mb56.gz 8.01MB Simrad multibeam vendor format
0187_20051005_010724_raw.all.mb56.gz 7.55MB Simrad multibeam vendor format
0188_20051005_020724_raw.all.mb56.gz 7.42MB Simrad multibeam vendor format
0189_20051005_030724_raw.all.mb56.gz 7.60MB Simrad multibeam vendor format
0190_20051005_040724_raw.all.mb56.gz 7.57MB Simrad multibeam vendor format
0191_20051005_050724_raw.all.mb56.gz 8.01MB Simrad multibeam vendor format
0192_20051005_060724_raw.all.mb56.gz 8.12MB Simrad multibeam vendor format
0193_20051005_070724_raw.all.mb56.gz 7.85MB Simrad multibeam vendor format
0194_20051005_080724_raw.all.mb56.gz 7.96MB Simrad multibeam vendor format
0195_20051005_090724_raw.all.mb56.gz 8.22MB Simrad multibeam vendor format
0196_20051005_100724_raw.all.mb56.gz 8.16MB Simrad multibeam vendor format
0197_20051005_110725_raw.all.mb56.gz 8.31MB Simrad multibeam vendor format
0198_20051005_120725_raw.all.mb56.gz 8.29MB Simrad multibeam vendor format
0199_20051005_130725_raw.all.mb56.gz 8.19MB Simrad multibeam vendor format
0200_20051005_140725_raw.all.mb56.gz 7.78MB Simrad multibeam vendor format
0201_20051005_150725_raw.all.mb56.gz 7.86MB Simrad multibeam vendor format
0202_20051005_160725_raw.all.mb56.gz 7.53MB Simrad multibeam vendor format
0203_20051005_170725_raw.all.mb56.gz 7.83MB Simrad multibeam vendor format
0204_20051005_180725_raw.all.mb56.gz 7.71MB Simrad multibeam vendor format
0205_20051005_190725_raw.all.mb56.gz 7.55MB Simrad multibeam vendor format
0206_20051005_200725_raw.all.mb56.gz 4.01MB Simrad multibeam vendor format
0207_20051005_203910_raw.all.mb56.gz 7.48MB Simrad multibeam vendor format
0208_20051005_213910_raw.all.mb56.gz 7.58MB Simrad multibeam vendor format
0209_20051005_223910_raw.all.mb56.gz 7.95MB Simrad multibeam vendor format
0210_20051005_233910_raw.all.mb56.gz 8.11MB Simrad multibeam vendor format
0211_20051006_003910_raw.all.mb56.gz 7.95MB Simrad multibeam vendor format
0212_20051006_013910_raw.all.mb56.gz 8.03MB Simrad multibeam vendor format
0213_20051006_023911_raw.all.mb56.gz 8.02MB Simrad multibeam vendor format
0214_20051006_033911_raw.all.mb56.gz 8.40MB Simrad multibeam vendor format
0215_20051006_043911_raw.all.mb56.gz 7.92MB Simrad multibeam vendor format
0216_20051006_053911_raw.all.mb56.gz 7.59MB Simrad multibeam vendor format
0217_20051006_063911_raw.all.mb56.gz 8.12MB Simrad multibeam vendor format
0218_20051006_073911_raw.all.mb56.gz 8.53MB Simrad multibeam vendor format
0219_20051006_083911_raw.all.mb56.gz 8.06MB Simrad multibeam vendor format
0220_20051006_093911_raw.all.mb56.gz 7.75MB Simrad multibeam vendor format
0221_20051006_103911_raw.all.mb56.gz 7.97MB Simrad multibeam vendor format
0222_20051006_113911_raw.all.mb56.gz 7.97MB Simrad multibeam vendor format
0223_20051006_123911_raw.all.mb56.gz 8.37MB Simrad multibeam vendor format
0224_20051006_133912_raw.all.mb56.gz 8.30MB Simrad multibeam vendor format
0225_20051006_143912_raw.all.mb56.gz 8.09MB Simrad multibeam vendor format
0226_20051006_153912_raw.all.mb56.gz 7.91MB Simrad multibeam vendor format
0227_20051006_163912_raw.all.mb56.gz 8.06MB Simrad multibeam vendor format
0228_20051006_173912_raw.all.mb56.gz 7.94MB Simrad multibeam vendor format
0229_20051006_183912_raw.all.mb56.gz 7.96MB Simrad multibeam vendor format
0230_20051006_193912_raw.all.mb56.gz 7.92MB Simrad multibeam vendor format
0231_20051006_203912_raw.all.mb56.gz 8.41MB Simrad multibeam vendor format
0232_20051006_213912_raw.all.mb56.gz 8.72MB Simrad multibeam vendor format
0233_20051006_223912_raw.all.mb56.gz 8.57MB Simrad multibeam vendor format
0234_20051006_233913_raw.all.mb56.gz 8.28MB Simrad multibeam vendor format
0235_20051007_003913_raw.all.mb56.gz 7.86MB Simrad multibeam vendor format
0236_20051007_013913_raw.all.mb56.gz 7.86MB Simrad multibeam vendor format
0237_20051007_023913_raw.all.mb56.gz 8.74MB Simrad multibeam vendor format
0238_20051007_033913_raw.all.mb56.gz 8.56MB Simrad multibeam vendor format
0239_20051007_043913_raw.all.mb56.gz 8.42MB Simrad multibeam vendor format
0240_20051007_053913_raw.all.mb56.gz 8.31MB Simrad multibeam vendor format
0241_20051007_063913_raw.all.mb56.gz 8.32MB Simrad multibeam vendor format
0242_20051007_073913_raw.all.mb56.gz 382.2KB Simrad multibeam vendor format
0243_20051007_074159_raw.all.mb56.gz 8.44MB Simrad multibeam vendor format
0244_20051007_084159_raw.all.mb56.gz 8.89MB Simrad multibeam vendor format
0245_20051007_094159_raw.all.mb56.gz 8.84MB Simrad multibeam vendor format
0246_20051007_104200_raw.all.mb56.gz 8.59MB Simrad multibeam vendor format
0247_20051007_114200_raw.all.mb56.gz 8.20MB Simrad multibeam vendor format
0248_20051007_124200_raw.all.mb56.gz 8.49MB Simrad multibeam vendor format
0249_20051007_134200_raw.all.mb56.gz 8.35MB Simrad multibeam vendor format
0250_20051007_144200_raw.all.mb56.gz 8.25MB Simrad multibeam vendor format
0251_20051007_154200_raw.all.mb56.gz 8.51MB Simrad multibeam vendor format
0252_20051007_164200_raw.all.mb56.gz 8.04MB Simrad multibeam vendor format
0253_20051007_174200_raw.all.mb56.gz 8.71MB Simrad multibeam vendor format
0254_20051007_184200_raw.all.mb56.gz 8.73MB Simrad multibeam vendor format
0255_20051007_194200_raw.all.mb56.gz 8.48MB Simrad multibeam vendor format
0256_20051007_204201_raw.all.mb56.gz 8.01MB Simrad multibeam vendor format
0257_20051007_214201_raw.all.mb56.gz 7.39MB Simrad multibeam vendor format
0258_20051007_224201_raw.all.mb56.gz 7.43MB Simrad multibeam vendor format
0259_20051007_234201_raw.all.mb56.gz 3.71MB Simrad multibeam vendor format
0260_20051008_000934_raw.all.mb56.gz 7.87MB Simrad multibeam vendor format
0261_20051008_010934_raw.all.mb56.gz 8.02MB Simrad multibeam vendor format
0262_20051008_020934_raw.all.mb56.gz 8.56MB Simrad multibeam vendor format
0263_20051008_030934_raw.all.mb56.gz 8.36MB Simrad multibeam vendor format
0264_20051008_040934_raw.all.mb56.gz 8.65MB Simrad multibeam vendor format
0265_20051008_050935_raw.all.mb56.gz 8.05MB Simrad multibeam vendor format
0266_20051008_060935_raw.all.mb56.gz 8.10MB Simrad multibeam vendor format
0267_20051008_070935_raw.all.mb56.gz 8.34MB Simrad multibeam vendor format
0268_20051008_080935_raw.all.mb56.gz 8.96MB Simrad multibeam vendor format
0269_20051008_090935_raw.all.mb56.gz 8.69MB Simrad multibeam vendor format
0270_20051008_100935_raw.all.mb56.gz 8.65MB Simrad multibeam vendor format
0271_20051008_110935_raw.all.mb56.gz 8.27MB Simrad multibeam vendor format
0272_20051008_120935_raw.all.mb56.gz 8.04MB Simrad multibeam vendor format
0273_20051008_130935_raw.all.mb56.gz 7.83MB Simrad multibeam vendor format
0274_20051008_140935_raw.all.mb56.gz 8.30MB Simrad multibeam vendor format
0275_20051008_150936_raw.all.mb56.gz 8.64MB Simrad multibeam vendor format
0276_20051008_160936_raw.all.mb56.gz 8.11MB Simrad multibeam vendor format
0277_20051008_170936_raw.all.mb56.gz 7.70MB Simrad multibeam vendor format
0278_20051008_180936_raw.all.mb56.gz 7.21MB Simrad multibeam vendor format
0279_20051008_190936_raw.all.mb56.gz 7.01MB Simrad multibeam vendor format
0280_20051008_200936_raw.all.mb56.gz 7.16MB Simrad multibeam vendor format
0281_20051008_210936_raw.all.mb56.gz 5.38MB Simrad multibeam vendor format
0282_20051008_215914_raw.all.mb56.gz 6.99MB Simrad multibeam vendor format
0283_20051008_225914_raw.all.mb56.gz 6.89MB Simrad multibeam vendor format
0284_20051008_235914_raw.all.mb56.gz 7.34MB Simrad multibeam vendor format
0285_20051009_005914_raw.all.mb56.gz 6.49MB Simrad multibeam vendor format
0286_20051009_015914_raw.all.mb56.gz 6.68MB Simrad multibeam vendor format
0287_20051009_025914_raw.all.mb56.gz 6.82MB Simrad multibeam vendor format
0288_20051009_035914_raw.all.mb56.gz 6.99MB Simrad multibeam vendor format
0289_20051009_045914_raw.all.mb56.gz 7.17MB Simrad multibeam vendor format
0290_20051009_055914_raw.all.mb56.gz 7.28MB Simrad multibeam vendor format
0291_20051009_065915_raw.all.mb56.gz 7.29MB Simrad multibeam vendor format
0292_20051009_075915_raw.all.mb56.gz 7.22MB Simrad multibeam vendor format
0293_20051009_085915_raw.all.mb56.gz 7.04MB Simrad multibeam vendor format
0294_20051009_095915_raw.all.mb56.gz 7.25MB Simrad multibeam vendor format
0295_20051009_105915_raw.all.mb56.gz 6.96MB Simrad multibeam vendor format
0296_20051009_115915_raw.all.mb56.gz 7.30MB Simrad multibeam vendor format
0297_20051009_125915_raw.all.mb56.gz 7.33MB Simrad multibeam vendor format
0298_20051009_135915_raw.all.mb56.gz 7.34MB Simrad multibeam vendor format
0299_20051009_145915_raw.all.mb56.gz 7.28MB Simrad multibeam vendor format
0300_20051009_155916_raw.all.mb56.gz 6.93MB Simrad multibeam vendor format
0301_20051009_165916_raw.all.mb56.gz 6.89MB Simrad multibeam vendor format
0302_20051009_175916_raw.all.mb56.gz 6.83MB Simrad multibeam vendor format
0303_20051009_185916_raw.all.mb56.gz 3.38MB Simrad multibeam vendor format
0304_20051009_192834_raw.all.mb56.gz 6.76MB Simrad multibeam vendor format
0305_20051009_202834_raw.all.mb56.gz 7.08MB Simrad multibeam vendor format
0306_20051009_212834_raw.all.mb56.gz 6.77MB Simrad multibeam vendor format
0307_20051009_222834_raw.all.mb56.gz 6.77MB Simrad multibeam vendor format
0308_20051009_232834_raw.all.mb56.gz 6.68MB Simrad multibeam vendor format
0309_20051010_002834_raw.all.mb56.gz 6.71MB Simrad multibeam vendor format
0310_20051010_012834_raw.all.mb56.gz 6.61MB Simrad multibeam vendor format
0311_20051010_022834_raw.all.mb56.gz 7.34MB Simrad multibeam vendor format
0312_20051010_032835_raw.all.mb56.gz 6.64MB Simrad multibeam vendor format
0313_20051010_042835_raw.all.mb56.gz 6.62MB Simrad multibeam vendor format
0314_20051010_052835_raw.all.mb56.gz 6.25MB Simrad multibeam vendor format
0315_20051010_062835_raw.all.mb56.gz 6.38MB Simrad multibeam vendor format
0316_20051010_072835_raw.all.mb56.gz 6.41MB Simrad multibeam vendor format
0317_20051010_082835_raw.all.mb56.gz 6.44MB Simrad multibeam vendor format
0318_20051010_092835_raw.all.mb56.gz 6.47MB Simrad multibeam vendor format
0319_20051010_102835_raw.all.mb56.gz 6.46MB Simrad multibeam vendor format
0320_20051010_112835_raw.all.mb56.gz 6.60MB Simrad multibeam vendor format
0321_20051010_122835_raw.all.mb56.gz 6.43MB Simrad multibeam vendor format
0322_20051010_132835_raw.all.mb56.gz 6.31MB Simrad multibeam vendor format
0323_20051010_142835_raw.all.mb56.gz 6.43MB Simrad multibeam vendor format
0324_20051010_152836_raw.all.mb56.gz 6.36MB Simrad multibeam vendor format
0325_20051010_162836_raw.all.mb56.gz 6.43MB Simrad multibeam vendor format
0326_20051010_172836_raw.all.mb56.gz 6.13MB Simrad multibeam vendor format
0327_20051010_182836_raw.all.mb56.gz 6.20MB Simrad multibeam vendor format
0328_20051010_192836_raw.all.mb56.gz 6.11MB Simrad multibeam vendor format
0329_20051010_202836_raw.all.mb56.gz 5.82MB Simrad multibeam vendor format
0330_20051010_212836_raw.all.mb56.gz 2.55MB Simrad multibeam vendor format
0331_20051010_215515_raw.all.mb56.gz 5.72MB Simrad multibeam vendor format
0332_20051010_225515_raw.all.mb56.gz 6.21MB Simrad multibeam vendor format
0333_20051010_235515_raw.all.mb56.gz 6.83MB Simrad multibeam vendor format
0334_20051011_005515_raw.all.mb56.gz 7.47MB Simrad multibeam vendor format
0335_20051011_015515_raw.all.mb56.gz 7.35MB Simrad multibeam vendor format
0336_20051011_025515_raw.all.mb56.gz 7.56MB Simrad multibeam vendor format
0337_20051011_035515_raw.all.mb56.gz 7.38MB Simrad multibeam vendor format
0338_20051011_045515_raw.all.mb56.gz 7.03MB Simrad multibeam vendor format
0339_20051011_055516_raw.all.mb56.gz 7.20MB Simrad multibeam vendor format
0340_20051011_065516_raw.all.mb56.gz 8.17MB Simrad multibeam vendor format
0341_20051011_075516_raw.all.mb56.gz 8.19MB Simrad multibeam vendor format
0342_20051011_085516_raw.all.mb56.gz 8.03MB Simrad multibeam vendor format
0343_20051011_095516_raw.all.mb56.gz 7.83MB Simrad multibeam vendor format
0344_20051011_105516_raw.all.mb56.gz 7.75MB Simrad multibeam vendor format
0345_20051011_115516_raw.all.mb56.gz 7.68MB Simrad multibeam vendor format
0346_20051011_125516_raw.all.mb56.gz 7.95MB Simrad multibeam vendor format
0347_20051011_135516_raw.all.mb56.gz 8.43MB Simrad multibeam vendor format
0348_20051011_145516_raw.all.mb56.gz 8.25MB Simrad multibeam vendor format
0349_20051011_155517_raw.all.mb56.gz 8.17MB Simrad multibeam vendor format
0350_20051011_165517_raw.all.mb56.gz 8.03MB Simrad multibeam vendor format
0351_20051011_175517_raw.all.mb56.gz 7.86MB Simrad multibeam vendor format
0352_20051011_185517_raw.all.mb56.gz 7.76MB Simrad multibeam vendor format
0353_20051011_195517_raw.all.mb56.gz 7.98MB Simrad multibeam vendor format
0354_20051011_205517_raw.all.mb56.gz 7.95MB Simrad multibeam vendor format
0355_20051011_215517_raw.all.mb56.gz 7.86MB Simrad multibeam vendor format
0356_20051011_225517_raw.all.mb56.gz 7.85MB Simrad multibeam vendor format
0357_20051011_235517_raw.all.mb56.gz 7.29MB Simrad multibeam vendor format
0358_20051012_005517_raw.all.mb56.gz 470.8KB Simrad multibeam vendor format
0359_20051012_005902_raw.all.mb56.gz 7.25MB Simrad multibeam vendor format
0360_20051012_015902_raw.all.mb56.gz 6.15MB Simrad multibeam vendor format
0361_20051012_025902_raw.all.mb56.gz 5.95MB Simrad multibeam vendor format
0362_20051012_035902_raw.all.mb56.gz 6.08MB Simrad multibeam vendor format
0363_20051012_045902_raw.all.mb56.gz 6.36MB Simrad multibeam vendor format
0364_20051012_055902_raw.all.mb56.gz 6.52MB Simrad multibeam vendor format
0365_20051012_065903_raw.all.mb56.gz 6.27MB Simrad multibeam vendor format
0366_20051012_075903_raw.all.mb56.gz 6.41MB Simrad multibeam vendor format
0367_20051012_085903_raw.all.mb56.gz 6.59MB Simrad multibeam vendor format
0368_20051012_095903_raw.all.mb56.gz 6.34MB Simrad multibeam vendor format
0369_20051012_105903_raw.all.mb56.gz 6.68MB Simrad multibeam vendor format
0370_20051012_115903_raw.all.mb56.gz 5.77MB Simrad multibeam vendor format
0371_20051012_125903_raw.all.mb56.gz 5.84MB Simrad multibeam vendor format
0372_20051012_135903_raw.all.mb56.gz 5.91MB Simrad multibeam vendor format
0373_20051012_145903_raw.all.mb56.gz 5.71MB Simrad multibeam vendor format
0374_20051012_155904_raw.all.mb56.gz 5.67MB Simrad multibeam vendor format
0375_20051012_165904_raw.all.mb56.gz 5.59MB Simrad multibeam vendor format
0376_20051012_175904_raw.all.mb56.gz 5.70MB Simrad multibeam vendor format
0377_20051012_185905_raw.all.mb56.gz 5.49MB Simrad multibeam vendor format
0378_20051012_195905_raw.all.mb56.gz 5.61MB Simrad multibeam vendor format
0379_20051012_205905_raw.all.mb56.gz 5.82MB Simrad multibeam vendor format
0380_20051012_215905_raw.all.mb56.gz 5.99MB Simrad multibeam vendor format
0381_20051012_225905_raw.all.mb56.gz 5.78MB Simrad multibeam vendor format
0382_20051012_235905_raw.all.mb56.gz 5.58MB Simrad multibeam vendor format
0383_20051013_005905_raw.all.mb56.gz 5.62MB Simrad multibeam vendor format
0384_20051013_015905_raw.all.mb56.gz 5.71MB Simrad multibeam vendor format
0385_20051013_025905_raw.all.mb56.gz 5.73MB Simrad multibeam vendor format
0386_20051013_035905_raw.all.mb56.gz 5.88MB Simrad multibeam vendor format
0387_20051013_045905_raw.all.mb56.gz 5.79MB Simrad multibeam vendor format
0388_20051013_055905_raw.all.mb56.gz 5.73MB Simrad multibeam vendor format
0389_20051013_065905_raw.all.mb56.gz 6.18MB Simrad multibeam vendor format
0390_20051013_075905_raw.all.mb56.gz 6.32MB Simrad multibeam vendor format
0391_20051013_085906_raw.all.mb56.gz 6.68MB Simrad multibeam vendor format
0392_20051013_095906_raw.all.mb56.gz 6.46MB Simrad multibeam vendor format
0393_20051013_105906_raw.all.mb56.gz 6.83MB Simrad multibeam vendor format
0394_20051013_115906_raw.all.mb56.gz 7.05MB Simrad multibeam vendor format
0395_20051013_125906_raw.all.mb56.gz 6.89MB Simrad multibeam vendor format
0396_20051013_135906_raw.all.mb56.gz 6.98MB Simrad multibeam vendor format
0397_20051013_145906_raw.all.mb56.gz 7.27MB Simrad multibeam vendor format
0398_20051013_155906_raw.all.mb56.gz 7.44MB Simrad multibeam vendor format
0399_20051013_165906_raw.all.mb56.gz 7.20MB Simrad multibeam vendor format
0400_20051013_175907_raw.all.mb56.gz 6.93MB Simrad multibeam vendor format
0401_20051013_185907_raw.all.mb56.gz 7.27MB Simrad multibeam vendor format
0402_20051013_195907_raw.all.mb56.gz 7.87MB Simrad multibeam vendor format
0403_20051013_205907_raw.all.mb56.gz 1.21MB Simrad multibeam vendor format
0404_20051013_210809_raw.all.mb56.gz 7.96MB Simrad multibeam vendor format
0405_20051013_220809_raw.all.mb56.gz 8.07MB Simrad multibeam vendor format
0406_20051013_230809_raw.all.mb56.gz 7.87MB Simrad multibeam vendor format
0407_20051014_000809_raw.all.mb56.gz 7.99MB Simrad multibeam vendor format
0408_20051014_010809_raw.all.mb56.gz 8.06MB Simrad multibeam vendor format
0409_20051014_020809_raw.all.mb56.gz 8.09MB Simrad multibeam vendor format
0410_20051014_030809_raw.all.mb56.gz 8.03MB Simrad multibeam vendor format
0411_20051014_040809_raw.all.mb56.gz 7.75MB Simrad multibeam vendor format
0412_20051014_050809_raw.all.mb56.gz 7.73MB Simrad multibeam vendor format
0413_20051014_060809_raw.all.mb56.gz 7.67MB Simrad multibeam vendor format
0414_20051014_070809_raw.all.mb56.gz 7.43MB Simrad multibeam vendor format
0415_20051014_080810_raw.all.mb56.gz 7.34MB Simrad multibeam vendor format
0416_20051014_090810_raw.all.mb56.gz 7.52MB Simrad multibeam vendor format
0417_20051014_100810_raw.all.mb56.gz 7.41MB Simrad multibeam vendor format
0418_20051014_110810_raw.all.mb56.gz 7.33MB Simrad multibeam vendor format
0419_20051014_120810_raw.all.mb56.gz 7.10MB Simrad multibeam vendor format
0420_20051014_130810_raw.all.mb56.gz 7.21MB Simrad multibeam vendor format
0421_20051014_140810_raw.all.mb56.gz 7.08MB Simrad multibeam vendor format
0422_20051014_150810_raw.all.mb56.gz 7.08MB Simrad multibeam vendor format
0423_20051014_160810_raw.all.mb56.gz 7.29MB Simrad multibeam vendor format
0424_20051014_170810_raw.all.mb56.gz 7.42MB Simrad multibeam vendor format
0425_20051014_180811_raw.all.mb56.gz 7.50MB Simrad multibeam vendor format
0426_20051014_190811_raw.all.mb56.gz 7.59MB Simrad multibeam vendor format
0427_20051014_200811_raw.all.mb56.gz 7.77MB Simrad multibeam vendor format
0428_20051014_210811_raw.all.mb56.gz 7.94MB Simrad multibeam vendor format
0429_20051014_220811_raw.all.mb56.gz 8.10MB Simrad multibeam vendor format
0430_20051014_230811_raw.all.mb56.gz 8.09MB Simrad multibeam vendor format
0431_20051015_000811_raw.all.mb56.gz 8.00MB Simrad multibeam vendor format
0432_20051015_010811_raw.all.mb56.gz 7.80MB Simrad multibeam vendor format
0433_20051015_020811_raw.all.mb56.gz 7.86MB Simrad multibeam vendor format
0434_20051015_030812_raw.all.mb56.gz 8.15MB Simrad multibeam vendor format
0435_20051015_040812_raw.all.mb56.gz 8.29MB Simrad multibeam vendor format
0436_20051015_050812_raw.all.mb56.gz 8.24MB Simrad multibeam vendor format
0437_20051015_060812_raw.all.mb56.gz 8.38MB Simrad multibeam vendor format
0438_20051015_070812_raw.all.mb56.gz 8.35MB Simrad multibeam vendor format
0439_20051015_080812_raw.all.mb56.gz 8.32MB Simrad multibeam vendor format
0440_20051015_090812_raw.all.mb56.gz 8.42MB Simrad multibeam vendor format
0441_20051015_100812_raw.all.mb56.gz 8.52MB Simrad multibeam vendor format
0442_20051015_110812_raw.all.mb56.gz 8.23MB Simrad multibeam vendor format
0443_20051015_120813_raw.all.mb56.gz 8.48MB Simrad multibeam vendor format
0444_20051015_130813_raw.all.mb56.gz 8.81MB Simrad multibeam vendor format
0445_20051015_140813_raw.all.mb56.gz 8.48MB Simrad multibeam vendor format
0446_20051015_150813_raw.all.mb56.gz 8.44MB Simrad multibeam vendor format
0447_20051015_160813_raw.all.mb56.gz 8.45MB Simrad multibeam vendor format
0448_20051015_170813_raw.all.mb56.gz 8.45MB Simrad multibeam vendor format
0449_20051015_180814_raw.all.mb56.gz 7.89MB Simrad multibeam vendor format
0450_20051015_190814_raw.all.mb56.gz 7.82MB Simrad multibeam vendor format
0451_20051015_200814_raw.all.mb56.gz 7.69MB Simrad multibeam vendor format
0452_20051015_210814_raw.all.mb56.gz 6.90MB Simrad multibeam vendor format
0453_20051015_220814_raw.all.mb56.gz 6.94MB Simrad multibeam vendor format
0454_20051015_230814_raw.all.mb56.gz 6.64MB Simrad multibeam vendor format
0455_20051016_000814_raw.all.mb56.gz 6.97MB Simrad multibeam vendor format
0456_20051016_010814_raw.all.mb56.gz 3.49MB Simrad multibeam vendor format
0457_20051016_014059_raw.all.mb56.gz 6.43MB Simrad multibeam vendor format
0458_20051016_024059_raw.all.mb56.gz 6.50MB Simrad multibeam vendor format
0459_20051016_034059_raw.all.mb56.gz 6.36MB Simrad multibeam vendor format
0460_20051016_044059_raw.all.mb56.gz 6.14MB Simrad multibeam vendor format
0461_20051016_054059_raw.all.mb56.gz 5.87MB Simrad multibeam vendor format
0462_20051016_064059_raw.all.mb56.gz 5.22MB Simrad multibeam vendor format
0463_20051016_074059_raw.all.mb56.gz 5.59MB Simrad multibeam vendor format
0464_20051016_084059_raw.all.mb56.gz 5.54MB Simrad multibeam vendor format
0465_20051016_094059_raw.all.mb56.gz 5.94MB Simrad multibeam vendor format
0466_20051016_104059_raw.all.mb56.gz 6.04MB Simrad multibeam vendor format
0467_20051016_114059_raw.all.mb56.gz 5.67MB Simrad multibeam vendor format
0468_20051016_124100_raw.all.mb56.gz 5.84MB Simrad multibeam vendor format
0469_20051016_134100_raw.all.mb56.gz 5.81MB Simrad multibeam vendor format
0470_20051016_144100_raw.all.mb56.gz 5.55MB Simrad multibeam vendor format
0471_20051016_154100_raw.all.mb56.gz 5.71MB Simrad multibeam vendor format
0472_20051016_164100_raw.all.mb56.gz 5.47MB Simrad multibeam vendor format
0473_20051016_174100_raw.all.mb56.gz 5.38MB Simrad multibeam vendor format
0474_20051016_184100_raw.all.mb56.gz 5.66MB Simrad multibeam vendor format
0475_20051016_194101_raw.all.mb56.gz 5.28MB Simrad multibeam vendor format
0476_20051016_204101_raw.all.mb56.gz 5.48MB Simrad multibeam vendor format
0477_20051016_214101_raw.all.mb56.gz 5.53MB Simrad multibeam vendor format
0478_20051016_224101_raw.all.mb56.gz 5.81MB Simrad multibeam vendor format
0479_20051016_234101_raw.all.mb56.gz 6.80MB Simrad multibeam vendor format
0480_20051017_004101_raw.all.mb56.gz 6.98MB Simrad multibeam vendor format
0481_20051017_014101_raw.all.mb56.gz 2.51MB Simrad multibeam vendor format
0482_20051017_020308_raw.all.mb56.gz 6.98MB Simrad multibeam vendor format
0483_20051017_030308_raw.all.mb56.gz 6.91MB Simrad multibeam vendor format
0484_20051017_040308_raw.all.mb56.gz 6.56MB Simrad multibeam vendor format
0485_20051017_050308_raw.all.mb56.gz 6.55MB Simrad multibeam vendor format
0486_20051017_060308_raw.all.mb56.gz 6.33MB Simrad multibeam vendor format
0487_20051017_070308_raw.all.mb56.gz 6.50MB Simrad multibeam vendor format
0488_20051017_080308_raw.all.mb56.gz 5.69MB Simrad multibeam vendor format
0489_20051017_090308_raw.all.mb56.gz 6.35MB Simrad multibeam vendor format
0490_20051017_100308_raw.all.mb56.gz 6.58MB Simrad multibeam vendor format
0491_20051017_110309_raw.all.mb56.gz 6.38MB Simrad multibeam vendor format
0492_20051017_120309_raw.all.mb56.gz 6.43MB Simrad multibeam vendor format
0493_20051017_130309_raw.all.mb56.gz 6.36MB Simrad multibeam vendor format
0494_20051017_140309_raw.all.mb56.gz 6.48MB Simrad multibeam vendor format
0495_20051017_150309_raw.all.mb56.gz 6.52MB Simrad multibeam vendor format
0496_20051017_160309_raw.all.mb56.gz 6.78MB Simrad multibeam vendor format
0497_20051017_170309_raw.all.mb56.gz 6.34MB Simrad multibeam vendor format
0498_20051017_180309_raw.all.mb56.gz 6.44MB Simrad multibeam vendor format
0499_20051017_190310_raw.all.mb56.gz 6.26MB Simrad multibeam vendor format
0500_20051017_200310_raw.all.mb56.gz 7.07MB Simrad multibeam vendor format
0501_20051017_210310_raw.all.mb56.gz 7.16MB Simrad multibeam vendor format
0502_20051017_220310_raw.all.mb56.gz 7.12MB Simrad multibeam vendor format
0503_20051017_230310_raw.all.mb56.gz 7.28MB Simrad multibeam vendor format
0504_20051018_000311_raw.all.mb56.gz 7.37MB Simrad multibeam vendor format
0505_20051018_010311_raw.all.mb56.gz 7.42MB Simrad multibeam vendor format
0506_20051018_020311_raw.all.mb56.gz 7.47MB Simrad multibeam vendor format
0507_20051018_030311_raw.all.mb56.gz 7.57MB Simrad multibeam vendor format
0508_20051018_040311_raw.all.mb56.gz 7.59MB Simrad multibeam vendor format
0509_20051018_050311_raw.all.mb56.gz 7.78MB Simrad multibeam vendor format
0510_20051018_060311_raw.all.mb56.gz 8.02MB Simrad multibeam vendor format
0511_20051018_070311_raw.all.mb56.gz 8.39MB Simrad multibeam vendor format
0512_20051018_080311_raw.all.mb56.gz 7.31MB Simrad multibeam vendor format
0513_20051018_090311_raw.all.mb56.gz 6.79MB Simrad multibeam vendor format
0514_20051018_100311_raw.all.mb56.gz 6.79MB Simrad multibeam vendor format
0515_20051018_110312_raw.all.mb56.gz 7.09MB Simrad multibeam vendor format
0516_20051018_120312_raw.all.mb56.gz 7.22MB Simrad multibeam vendor format
0517_20051018_130312_raw.all.mb56.gz 7.48MB Simrad multibeam vendor format
0518_20051018_140312_raw.all.mb56.gz 7.49MB Simrad multibeam vendor format
0519_20051018_150312_raw.all.mb56.gz 8.07MB Simrad multibeam vendor format
0520_20051018_160312_raw.all.mb56.gz 7.36MB Simrad multibeam vendor format
0521_20051018_170312_raw.all.mb56.gz 7.06MB Simrad multibeam vendor format
0522_20051018_180313_raw.all.mb56.gz 7.45MB Simrad multibeam vendor format
0523_20051018_190313_raw.all.mb56.gz 7.16MB Simrad multibeam vendor format
0524_20051018_200313_raw.all.mb56.gz 7.19MB Simrad multibeam vendor format
0525_20051018_210314_raw.all.mb56.gz 7.38MB Simrad multibeam vendor format
0526_20051018_220314_raw.all.mb56.gz 7.79MB Simrad multibeam vendor format
0527_20051018_230314_raw.all.mb56.gz 8.78MB Simrad multibeam vendor format
0528_20051019_000314_raw.all.mb56.gz 9.01MB Simrad multibeam vendor format
0529_20051019_010314_raw.all.mb56.gz 9.36MB Simrad multibeam vendor format
0530_20051019_020314_raw.all.mb56.gz 8.80MB Simrad multibeam vendor format
0531_20051019_030314_raw.all.mb56.gz 8.76MB Simrad multibeam vendor format
0532_20051019_040314_raw.all.mb56.gz 9.00MB Simrad multibeam vendor format
0533_20051019_050314_raw.all.mb56.gz 8.59MB Simrad multibeam vendor format
0534_20051019_060314_raw.all.mb56.gz 9.32MB Simrad multibeam vendor format
0535_20051019_070314_raw.all.mb56.gz 9.37MB Simrad multibeam vendor format
0536_20051019_080315_raw.all.mb56.gz 9.52MB Simrad multibeam vendor format
0537_20051019_090315_raw.all.mb56.gz 9.79MB Simrad multibeam vendor format
0538_20051019_100315_raw.all.mb56.gz 9.21MB Simrad multibeam vendor format
0539_20051019_110315_raw.all.mb56.gz 8.59MB Simrad multibeam vendor format
0540_20051019_120315_raw.all.mb56.gz 8.57MB Simrad multibeam vendor format
0541_20051019_130315_raw.all.mb56.gz 9.24MB Simrad multibeam vendor format
0542_20051019_140315_raw.all.mb56.gz 10.30MB Simrad multibeam vendor format
0543_20051019_150315_raw.all.mb56.gz 10.56MB Simrad multibeam vendor format
0544_20051019_160315_raw.all.mb56.gz 11.21MB Simrad multibeam vendor format
0545_20051019_170315_raw.all.mb56.gz 11.65MB Simrad multibeam vendor format
0546_20051019_180315_raw.all.mb56.gz 11.82MB Simrad multibeam vendor format
0547_20051019_190316_raw.all.mb56.gz 12.04MB Simrad multibeam vendor format
0548_20051019_200316_raw.all.mb56.gz 12.48MB Simrad multibeam vendor format
0549_20051019_210316_raw.all.mb56.gz 13.07MB Simrad multibeam vendor format
0550_20051019_220317_raw.all.mb56.gz 13.64MB Simrad multibeam vendor format
0551_20051019_230317_raw.all.mb56.gz 13.70MB Simrad multibeam vendor format
0552_20051020_000317_raw.all.mb56.gz 14.39MB Simrad multibeam vendor format
0553_20051020_010317_raw.all.mb56.gz 16.93MB Simrad multibeam vendor format
0554_20051020_020317_raw.all.mb56.gz 56.17MB Simrad multibeam vendor format
0555_20051020_030317_raw.all.mb56.gz 50.54MB Simrad multibeam vendor format
0556_20051020_040317_raw.all.mb56.gz 24.05MB Simrad multibeam vendor format
0557_20051020_050317_raw.all.mb56.gz 24.79MB Simrad multibeam vendor format
0558_20051020_060317_raw.all.mb56.gz 25.46MB Simrad multibeam vendor format
0559_20051020_070318_raw.all.mb56.gz 24.24MB Simrad multibeam vendor format
0560_20051020_080318_raw.all.mb56.gz 24.71MB Simrad multibeam vendor format
0561_20051020_090318_raw.all.mb56.gz 23.47MB Simrad multibeam vendor format
0562_20051020_100318_raw.all.mb56.gz 24.29MB Simrad multibeam vendor format
0563_20051020_110318_raw.all.mb56.gz 41.21MB Simrad multibeam vendor format
0564_20051020_120318_raw.all.mb56.gz 69.15MB Simrad multibeam vendor format
0565_20051020_130318_raw.all.mb56.gz 75.08MB Simrad multibeam vendor format
0566_20051020_140318_raw.all.mb56.gz 85.70MB Simrad multibeam vendor format
0567_20051020_150318_raw.all.mb56.gz 87.42MB Simrad multibeam vendor format
0568_20051020_160318_raw.all.mb56.gz 59.42MB Simrad multibeam vendor format

Metadata Files: 1

Files File Size Description
NBP0507_Multibeam.xml NGDC created ISO metadata